Time;durP1;ratioP1;P1;durP2;ratioP2;P2;SDS_P1;SDS_P2;PMS_P1;PMS_P2;Temp;Humidity;BMP_temperature;BMP_pressure;BME280_temperature;BME280_humidity;BME280_pressure;Samples;Min_cycle;Max_cycle;Signal;HPM_P1;HPM_P2
2021/12/03 00:00:22;;;;;;;3.70;1.95;;;1.00;95.30;;;;;;2076406;28;20123;-92
2021/12/03 00:01:27;;;;;;;4.82;2.00;;;1.00;95.30;;;;;;2089754;28;20041;-92
2021/12/03 00:02:28;;;;;;;4.78;2.00;;;1.00;95.30;;;;;;2085381;28;20368;-93
2021/12/03 00:03:29;;;;;;;5.15;2.65;;;1.00;95.30;;;;;;2078487;28;20469;-91
2021/12/03 00:04:30;;;;;;;5.25;2.55;;;1.00;95.30;;;;;;2081169;28;20041;-93
2021/12/03 00:05:32;;;;;;;4.30;2.38;;;1.00;95.30;;;;;;2077068;28;20034;-93
2021/12/03 00:06:35;;;;;;;5.32;3.00;;;1.00;95.30;;;;;;2081413;28;20026;-93
2021/12/03 00:07:39;;;;;;;5.07;2.40;;;1.00;95.30;;;;;;2081808;28;20038;-91
2021/12/03 00:08:40;;;;;;;4.32;2.30;;;1.00;95.30;;;;;;2080360;28;20030;-91
2021/12/03 00:09:41;;;;;;;3.90;2.40;;;1.00;95.30;;;;;;2088503;28;20490;-92
2021/12/03 00:10:44;;;;;;;5.22;2.58;;;1.00;95.30;;;;;;2065276;28;20058;-92
2021/12/03 00:11:44;;;;;;;4.20;2.08;;;1.00;95.30;;;;;;2067900;28;20065;-93
2021/12/03 00:12:45;;;;;;;4.50;2.17;;;1.00;95.30;;;;;;2062539;28;20077;-92
2021/12/03 00:13:46;;;;;;;5.70;3.13;;;1.00;95.30;;;;;;2082409;28;20029;-93
2021/12/03 00:14:47;;;;;;;4.13;2.53;;;1.00;95.30;;;;;;2082591;28;20112;-93
2021/12/03 00:15:49;;;;;;;3.92;2.10;;;1.00;95.40;;;;;;2082211;28;20021;-92
2021/12/03 00:16:50;;;;;;;4.05;2.08;;;1.00;95.30;;;;;;2074663;28;20033;-92
2021/12/03 00:17:51;;;;;;;4.38;2.25;;;0.90;95.30;;;;;;2059693;28;20138;-93
2021/12/03 00:18:52;;;;;;;5.35;2.45;;;1.00;95.30;;;;;;2063311;28;20472;-93
2021/12/03 00:19:53;;;;;;;3.88;1.90;;;1.00;95.30;;;;;;2057892;28;20057;-92
2021/12/03 00:20:55;;;;;;;4.93;2.40;;;1.00;95.30;;;;;;2044476;28;20031;-91
2021/12/03 00:21:56;;;;;;;4.50;2.50;;;0.90;95.60;;;;;;2057990;28;20031;-91
2021/12/03 00:22:58;;;;;;;6.10;2.50;;;0.90;95.30;;;;;;2058145;28;20050;-92
2021/12/03 00:23:59;;;;;;;4.13;2.10;;;0.90;95.30;;;;;;2073723;28;20086;-92
2021/12/03 00:24:59;;;;;;;4.63;2.20;;;1.00;95.30;;;;;;2065436;28;20030;-92
2021/12/03 00:26:02;;;;;;;4.10;2.00;;;0.90;95.30;;;;;;2056745;28;20090;-93
2021/12/03 00:27:04;;;;;;;4.72;2.40;;;0.90;95.30;;;;;;2072472;28;20089;-92
2021/12/03 00:28:05;;;;;;;4.10;2.35;;;0.90;95.30;;;;;;2057289;28;20065;-92
2021/12/03 00:29:06;;;;;;;5.40;2.50;;;0.90;95.30;;;;;;2042007;28;20040;-92
2021/12/03 00:30:09;;;;;;;5.40;2.53;;;0.90;95.30;;;;;;2049266;28;20546;-93
2021/12/03 00:31:11;;;;;;;4.50;2.33;;;1.00;95.40;;;;;;2070336;28;20039;-93
2021/12/03 00:32:11;;;;;;;4.15;2.38;;;0.90;95.30;;;;;;2081929;28;20365;-92
2021/12/03 00:33:12;;;;;;;4.65;2.28;;;0.90;95.30;;;;;;2065772;28;20175;-92
2021/12/03 00:34:13;;;;;;;3.75;2.20;;;0.90;95.30;;;;;;2065814;28;20034;-93
2021/12/03 00:35:15;;;;;;;4.50;2.58;;;0.90;95.30;;;;;;2057484;28;20022;-93
2021/12/03 00:36:16;;;;;;;5.22;2.38;;;0.90;95.30;;;;;;2041887;28;20031;-92
2021/12/03 00:37:16;;;;;;;3.75;2.13;;;1.00;95.40;;;;;;2057799;28;20038;-92
2021/12/03 00:38:17;;;;;;;3.65;2.30;;;0.90;95.30;;;;;;2049715;28;20066;-93
2021/12/03 00:39:18;;;;;;;4.38;2.35;;;1.00;95.40;;;;;;2057719;28;20030;-93
2021/12/03 00:40:29;;;;;;;6.15;2.47;;;0.90;95.30;;;;;;2066335;28;20484;-93
2021/12/03 00:41:34;;;;;;;4.85;2.55;;;1.00;95.40;;;;;;2073778;28;20329;-92
2021/12/03 00:42:35;;;;;;;3.95;2.30;;;1.00;95.60;;;;;;2057701;28;20034;-92
2021/12/03 00:43:43;;;;;;;3.08;2.08;;;1.00;95.30;;;;;;2050549;28;20572;-91
2021/12/03 00:44:50;;;;;;;5.32;2.28;;;0.90;95.30;;;;;;2058789;28;20031;-93
2021/12/03 00:45:53;;;;;;;4.85;2.63;;;1.00;95.30;;;;;;2066209;28;20030;-93
2021/12/03 00:46:55;;;;;;;3.92;2.28;;;1.00;95.30;;;;;;2072457;28;20304;-93
2021/12/03 00:47:55;;;;;;;3.80;2.30;;;1.00;95.30;;;;;;2064125;28;20030;-93
2021/12/03 00:48:56;;;;;;;4.30;2.55;;;0.90;95.30;;;;;;2057796;28;20034;-93
2021/12/03 00:49:57;;;;;;;4.43;2.38;;;1.00;95.30;;;;;;2072455;28;20030;-93
2021/12/03 00:50:59;;;;;;;4.53;2.60;;;0.90;95.30;;;;;;2063642;28;20092;-93
2021/12/03 00:52:00;;;;;;;4.57;2.42;;;1.00;95.30;;;;;;2057633;28;20122;-93
2021/12/03 00:53:01;;;;;;;4.53;2.53;;;0.90;95.30;;;;;;2065889;28;20064;-92
2021/12/03 00:54:02;;;;;;;5.30;2.55;;;0.90;95.30;;;;;;2073784;28;20104;-92
2021/12/03 00:55:04;;;;;;;4.03;2.40;;;0.90;95.30;;;;;;2072836;28;20065;-91
2021/12/03 00:56:07;;;;;;;4.00;2.35;;;0.90;95.30;;;;;;2063409;28;20029;-92
2021/12/03 00:57:08;;;;;;;4.10;2.40;;;0.90;95.30;;;;;;2066848;28;20393;-92
2021/12/03 00:58:09;;;;;;;4.80;2.60;;;0.90;95.30;;;;;;2070630;28;20121;-91
2021/12/03 00:59:10;;;;;;;4.93;2.60;;;0.90;95.30;;;;;;2069907;28;20027;-92
2021/12/03 01:00:15;;;;;;;3.80;2.50;;;0.90;95.30;;;;;;2068880;28;20018;-93
2021/12/03 01:01:17;;;;;;;4.82;2.28;;;0.90;95.30;;;;;;2073108;28;20090;-92
2021/12/03 01:02:18;;;;;;;5.13;2.55;;;0.90;95.30;;;;;;2082419;28;20010;-87
2021/12/03 01:03:18;;;;;;;4.65;2.53;;;0.90;95.30;;;;;;2067457;28;20091;-83
2021/12/03 01:04:19;;;;;;;4.07;2.30;;;0.90;95.30;;;;;;2053073;28;20035;-85
2021/12/03 01:05:21;;;;;;;4.95;2.78;;;0.90;95.30;;;;;;2062080;28;20023;-89
2021/12/03 01:06:21;;;;;;;5.85;2.92;;;0.90;95.30;;;;;;2082730;28;20038;-84
2021/12/03 01:07:22;;;;;;;6.30;3.30;;;0.90;95.30;;;;;;2083950;28;20008;-82
2021/12/03 01:08:23;;;;;;;5.93;2.97;;;0.90;95.30;;;;;;2085084;28;20017;-88
2021/12/03 01:09:24;;;;;;;4.90;2.60;;;0.90;95.40;;;;;;2083358;28;20025;-84
2021/12/03 01:10:26;;;;;;;4.90;2.83;;;0.90;95.40;;;;;;2069037;28;20039;-92
2021/12/03 01:11:26;;;;;;;4.18;2.70;;;0.90;95.40;;;;;;2057982;28;20113;-92
2021/12/03 01:12:27;;;;;;;4.60;2.70;;;0.90;95.40;;;;;;2035810;29;20863;-92
2021/12/03 01:13:27;;;;;;;4.32;2.88;;;0.90;95.30;;;;;;2041629;29;20085;-92
2021/12/03 01:14:28;;;;;;;6.00;2.80;;;0.90;95.30;;;;;;2056618;28;20058;-92
2021/12/03 01:15:32;;;;;;;4.78;2.72;;;0.90;95.40;;;;;;2060727;28;20117;-93
2021/12/03 01:16:34;;;;;;;4.50;2.70;;;0.90;95.30;;;;;;2058985;28;20033;-92
2021/12/03 01:17:35;;;;;;;4.22;2.63;;;0.90;95.30;;;;;;2065745;28;20107;-92
2021/12/03 01:18:36;;;;;;;4.45;2.42;;;0.90;95.30;;;;;;2067870;28;20034;-92
2021/12/03 01:19:37;;;;;;;4.80;2.83;;;0.90;95.30;;;;;;2059838;28;20027;-92
2021/12/03 01:20:39;;;;;;;5.47;2.80;;;0.90;95.30;;;;;;2070656;28;20431;-92
2021/12/03 01:21:40;;;;;;;5.03;2.60;;;0.90;95.30;;;;;;2080390;28;20037;-92
2021/12/03 01:22:43;;;;;;;4.45;2.80;;;0.90;95.30;;;;;;2080328;28;20055;-92
2021/12/03 01:23:44;;;;;;;5.72;3.20;;;0.90;95.30;;;;;;2073978;28;20534;-92
2021/12/03 01:24:44;;;;;;;5.32;2.97;;;0.90;95.30;;;;;;2081524;28;20024;-92
2021/12/03 01:25:45;;;;;;;5.05;3.10;;;0.90;95.30;;;;;;2089835;28;20041;-92
2021/12/03 01:26:46;;;;;;;5.10;2.83;;;0.90;95.30;;;;;;2073018;28;20064;-92
2021/12/03 01:27:48;;;;;;;4.55;2.88;;;0.90;95.30;;;;;;2073311;28;20037;-92
2021/12/03 01:28:48;;;;;;;4.22;2.58;;;0.90;95.30;;;;;;2073419;28;20069;-92
2021/12/03 01:29:49;;;;;;;4.93;2.88;;;0.90;95.40;;;;;;2079987;28;20020;-92
2021/12/03 01:30:50;;;;;;;4.10;2.78;;;0.90;95.40;;;;;;2075437;28;20538;-92
2021/12/03 01:31:53;;;;;;;4.75;2.92;;;0.90;95.40;;;;;;2065328;28;20034;-93
2021/12/03 01:32:55;;;;;;;6.00;3.20;;;0.80;95.40;;;;;;2080321;28;20023;-92
2021/12/03 01:33:56;;;;;;;4.95;3.08;;;0.90;95.40;;;;;;2063371;28;20120;-92
2021/12/03 01:34:56;;;;;;;5.63;2.90;;;0.90;95.40;;;;;;2065969;28;20035;-92
2021/12/03 01:35:57;;;;;;;4.68;3.08;;;0.90;95.40;;;;;;2080225;28;20476;-92
2021/12/03 01:36:58;;;;;;;5.07;3.17;;;0.80;95.40;;;;;;2081337;28;20049;-93
2021/12/03 01:37:59;;;;;;;5.45;3.30;;;0.90;95.40;;;;;;2089498;28;20040;-93
2021/12/03 01:38:59;;;;;;;4.28;2.90;;;0.90;95.40;;;;;;2081674;28;20415;-92
2021/12/03 01:40:00;;;;;;;4.75;2.90;;;0.90;95.40;;;;;;2073070;28;20081;-92
2021/12/03 01:41:02;;;;;;;5.25;3.10;;;0.90;95.40;;;;;;2071108;28;20030;-93
2021/12/03 01:42:03;;;;;;;4.75;2.92;;;0.90;95.40;;;;;;2083819;28;20038;-92
2021/12/03 01:43:05;;;;;;;4.30;2.72;;;0.80;95.30;;;;;;2067497;28;20030;-92
2021/12/03 01:44:08;;;;;;;4.95;2.88;;;0.90;95.40;;;;;;2065856;28;20019;-92
2021/12/03 01:45:09;;;;;;;4.32;3.00;;;0.80;95.30;;;;;;2065471;28;20030;-92
2021/12/03 01:46:12;;;;;;;5.70;3.40;;;0.80;95.30;;;;;;2073915;28;20033;-93
2021/12/03 01:47:13;;;;;;;4.88;3.00;;;0.90;95.40;;;;;;2082354;28;20445;-92
2021/12/03 01:48:14;;;;;;;5.20;3.15;;;0.80;95.30;;;;;;2073493;28;20061;-91
2021/12/03 01:49:15;;;;;;;5.05;2.90;;;0.90;95.40;;;;;;2070895;28;20031;-92
2021/12/03 01:50:16;;;;;;;4.80;2.83;;;0.90;95.40;;;;;;2074320;28;20045;-92
2021/12/03 01:51:19;;;;;;;4.57;3.00;;;0.90;95.40;;;;;;2083062;28;20026;-92
2021/12/03 01:52:19;;;;;;;4.85;3.10;;;0.90;95.40;;;;;;2097090;28;20017;-93
2021/12/03 01:53:25;;;;;;;6.18;3.40;;;0.90;95.40;;;;;;2094189;28;20038;-93
2021/12/03 01:54:26;;;;;;;5.68;3.20;;;0.90;95.40;;;;;;2091119;28;20041;-93
2021/12/03 01:55:27;;;;;;;4.45;3.05;;;0.90;95.40;;;;;;2086260;28;20057;-93
2021/12/03 01:56:28;;;;;;;4.28;3.03;;;0.90;95.40;;;;;;2099657;28;20025;-93
2021/12/03 01:57:28;;;;;;;5.85;3.17;;;1.00;95.40;;;;;;2083710;28;20010;-92
2021/12/03 01:58:29;;;;;;;5.13;2.92;;;1.00;95.40;;;;;;2083336;28;20030;-88
2021/12/03 01:59:29;;;;;;;5.15;3.47;;;0.90;95.40;;;;;;2091263;28;20029;-85
2021/12/03 02:00:36;;;;;;;4.97;3.10;;;1.00;95.40;;;;;;2088290;28;20048;-91
2021/12/03 02:01:37;;;;;;;5.13;3.40;;;1.00;95.40;;;;;;2079235;28;20373;-92
2021/12/03 02:02:38;;;;;;;4.65;3.10;;;1.00;95.40;;;;;;2081150;28;20406;-91
2021/12/03 02:03:41;;;;;;;5.45;3.10;;;1.00;95.40;;;;;;2080702;28;20085;-91
2021/12/03 02:04:42;;;;;;;5.00;3.45;;;1.00;95.70;;;;;;2071646;28;20026;-92
2021/12/03 02:05:43;;;;;;;5.50;3.10;;;1.00;95.40;;;;;;2072735;28;20030;-91
2021/12/03 02:06:44;;;;;;;5.25;3.20;;;1.00;95.40;;;;;;2075793;28;20088;-92
2021/12/03 02:07:45;;;;;;;6.07;3.20;;;1.00;95.40;;;;;;2066265;28;20173;-92
2021/12/03 02:08:46;;;;;;;4.90;3.00;;;1.00;95.40;;;;;;2086038;28;20018;-92
2021/12/03 02:09:47;;;;;;;4.57;3.00;;;1.00;95.60;;;;;;2080869;28;20034;-92
2021/12/03 02:10:48;;;;;;;5.32;3.00;;;1.00;95.40;;;;;;2073156;28;20061;-93
2021/12/03 02:11:48;;;;;;;4.20;2.83;;;1.00;95.40;;;;;;2072665;28;20025;-91
2021/12/03 02:12:50;;;;;;;5.00;2.80;;;1.10;95.40;;;;;;2073419;28;20030;-91
2021/12/03 02:13:51;;;;;;;5.50;3.25;;;1.00;95.30;;;;;;2080593;28;20432;-92
2021/12/03 02:14:51;;;;;;;5.18;3.00;;;1.10;95.40;;;;;;2090495;28;20036;-91
2021/12/03 02:15:52;;;;;;;5.28;3.22;;;1.00;95.30;;;;;;2082414;28;20026;-92
2021/12/03 02:16:53;;;;;;;4.82;3.30;;;1.00;95.30;;;;;;2090610;28;20036;-92
2021/12/03 02:17:54;;;;;;;5.97;3.30;;;1.10;95.30;;;;;;2078723;28;20129;-92
2021/12/03 02:18:55;;;;;;;5.38;3.30;;;1.10;95.30;;;;;;2057220;28;20129;-91
2021/12/03 02:19:57;;;;;;;5.38;3.13;;;1.10;95.30;;;;;;2058819;28;20073;-91
2021/12/03 02:21:02;;;;;;;4.93;3.17;;;1.10;95.30;;;;;;2072563;28;20034;-92
2021/12/03 02:22:02;;;;;;;4.72;3.10;;;1.10;95.30;;;;;;2075480;28;20022;-92
2021/12/03 02:23:03;;;;;;;5.20;3.38;;;1.10;95.30;;;;;;2083154;28;20037;-91
2021/12/03 02:24:05;;;;;;;7.10;3.75;;;1.10;95.30;;;;;;2066109;28;20034;-91
2021/12/03 02:25:10;;;;;;;5.63;3.28;;;1.10;95.30;;;;;;2058644;28;20393;-91
2021/12/03 02:26:12;;;;;;;4.95;3.42;;;1.10;95.30;;;;;;2066569;28;20057;-92
2021/12/03 02:27:13;;;;;;;6.20;3.38;;;1.10;95.30;;;;;;2063276;28;20046;-92
2021/12/03 02:28:15;;;;;;;6.00;3.50;;;1.10;95.30;;;;;;2050205;29;20070;-91
2021/12/03 02:29:16;;;;;;;5.35;3.28;;;1.10;95.30;;;;;;2058122;28;20393;-91
2021/12/03 02:30:18;;;;;;;5.22;3.50;;;1.10;95.30;;;;;;2073898;28;20129;-92
2021/12/03 02:31:22;;;;;;;4.82;3.28;;;1.10;95.30;;;;;;2069003;28;20069;-92
2021/12/03 02:32:23;;;;;;;5.93;3.67;;;1.10;95.30;;;;;;2067612;28;20416;-92
2021/12/03 02:33:24;;;;;;;6.15;3.47;;;1.10;95.30;;;;;;2061178;28;20023;-92
2021/12/03 02:34:24;;;;;;;5.85;3.22;;;1.10;95.30;;;;;;2060164;28;20037;-92
2021/12/03 02:35:25;;;;;;;5.40;3.40;;;1.10;95.60;;;;;;2058829;28;20031;-91
2021/12/03 02:36:26;;;;;;;5.10;3.45;;;1.10;95.30;;;;;;2066314;28;20473;-93
2021/12/03 02:37:26;;;;;;;6.28;3.53;;;1.10;95.30;;;;;;2049521;29;20027;-92
2021/12/03 02:38:27;;;;;;;6.82;3.78;;;1.10;95.60;;;;;;2055866;28;20044;-92
2021/12/03 02:39:28;;;;;;;6.13;3.80;;;1.10;95.30;;;;;;2066734;28;20559;-92
2021/12/03 02:40:29;;;;;;;7.15;3.78;;;1.10;95.30;;;;;;2066661;28;20042;-92
2021/12/03 02:41:29;;;;;;;4.50;3.10;;;1.10;95.30;;;;;;2057387;28;20034;-92
2021/12/03 02:42:30;;;;;;;5.88;3.83;;;1.10;95.60;;;;;;2058147;28;20031;-92
2021/12/03 02:43:31;;;;;;;7.53;3.65;;;1.10;95.30;;;;;;2072155;28;20124;-92
2021/12/03 02:44:32;;;;;;;5.72;3.83;;;1.10;95.30;;;;;;2066543;28;20117;-92
2021/12/03 02:45:33;;;;;;;4.75;3.42;;;1.10;95.30;;;;;;2064636;28;20495;-92
2021/12/03 02:46:34;;;;;;;6.22;3.80;;;1.10;95.30;;;;;;2074024;28;20052;-92
2021/12/03 02:47:35;;;;;;;5.32;3.70;;;1.20;95.30;;;;;;2058192;28;20027;-91
2021/12/03 02:48:36;;;;;;;6.57;3.90;;;1.20;95.30;;;;;;2057197;28;20014;-92
2021/12/03 02:49:41;;;;;;;6.13;3.80;;;1.20;95.30;;;;;;2067324;28;20076;-93
2021/12/03 02:50:42;;;;;;;5.72;3.80;;;1.10;95.30;;;;;;2074251;28;20037;-92
2021/12/03 02:51:43;;;;;;;5.65;3.97;;;1.20;95.30;;;;;;2058733;28;20404;-93
2021/12/03 02:52:46;;;;;;;6.90;4.20;;;1.20;95.30;;;;;;2060888;28;20027;-92
2021/12/03 02:53:46;;;;;;;5.95;3.80;;;1.20;95.30;;;;;;2070489;28;20021;-92
2021/12/03 02:54:47;;;;;;;6.03;3.95;;;1.20;95.30;;;;;;2048756;29;20087;-92
2021/12/03 02:55:49;;;;;;;5.38;3.72;;;1.20;95.30;;;;;;2062654;28;20030;-92
2021/12/03 02:56:50;;;;;;;6.07;3.85;;;1.20;95.30;;;;;;2085482;28;20055;-92
2021/12/03 02:57:51;;;;;;;6.13;3.90;;;1.20;95.30;;;;;;2080061;28;20025;-91
2021/12/03 02:58:51;;;;;;;5.68;3.92;;;1.20;95.30;;;;;;2091425;28;20025;-92
2021/12/03 02:59:52;;;;;;;6.13;4.28;;;1.20;95.30;;;;;;2092539;28;20013;-91
2021/12/03 03:00:54;;;;;;;7.00;4.38;;;1.20;95.30;;;;;;2084426;28;20026;-91
2021/12/03 03:01:55;;;;;;;6.05;4.57;;;1.20;95.30;;;;;;2076490;28;20023;-92
2021/12/03 03:02:57;;;;;;;6.95;3.92;;;1.20;95.30;;;;;;2068233;28;20019;-92
2021/12/03 03:03:58;;;;;;;6.60;4.55;;;1.20;95.30;;;;;;2075755;28;20007;-90
2021/12/03 03:04:58;;;;;;;7.30;4.60;;;1.20;95.30;;;;;;2076752;28;20026;-90
2021/12/03 03:06:01;;;;;;;7.32;4.30;;;1.20;95.30;;;;;;2068530;28;20461;-91
2021/12/03 03:07:02;;;;;;;6.90;4.60;;;1.20;95.30;;;;;;2074851;28;20088;-92
2021/12/03 03:08:03;;;;;;;6.82;4.78;;;1.20;95.30;;;;;;2074608;28;20034;-92
2021/12/03 03:09:08;;;;;;;7.03;4.22;;;1.20;95.30;;;;;;2058278;28;20034;-92
2021/12/03 03:10:11;;;;;;;7.03;4.38;;;1.30;95.40;;;;;;2059659;28;20034;-92
2021/12/03 03:11:11;;;;;;;7.15;4.47;;;1.20;95.30;;;;;;2073037;28;20026;-92
2021/12/03 03:12:13;;;;;;;5.95;4.30;;;1.20;95.30;;;;;;2052135;28;20187;-93
2021/12/03 03:13:14;;;;;;;7.10;4.63;;;1.20;95.30;;;;;;2046126;28;20039;-92
2021/12/03 03:14:15;;;;;;;6.22;4.35;;;1.30;95.30;;;;;;2070824;28;20072;-93
2021/12/03 03:15:16;;;;;;;6.90;4.63;;;1.30;95.30;;;;;;2079771;28;20476;-92
2021/12/03 03:16:18;;;;;;;7.25;4.80;;;1.30;95.40;;;;;;2082437;28;20120;-92
2021/12/03 03:17:21;;;;;;;7.07;4.53;;;1.30;95.40;;;;;;2073748;28;20022;-92
2021/12/03 03:18:26;;;;;;;6.57;4.72;;;1.30;95.40;;;;;;2088316;28;20148;-93
2021/12/03 03:19:27;;;;;;;6.50;4.30;;;1.30;95.30;;;;;;2088764;28;20461;-92
2021/12/03 03:20:27;;;;;;;7.43;5.10;;;1.30;95.30;;;;;;2080977;28;20029;-92
2021/12/03 03:21:28;;;;;;;6.43;4.10;;;1.30;95.30;;;;;;2062556;28;20051;-92
2021/12/03 03:22:29;;;;;;;6.90;4.43;;;1.30;95.30;;;;;;2070299;28;20023;-93
2021/12/03 03:23:32;;;;;;;7.63;4.50;;;1.30;95.40;;;;;;2081612;28;20029;-92
2021/12/03 03:24:34;;;;;;;7.57;4.68;;;1.30;95.40;;;;;;2082085;28;20030;-92
2021/12/03 03:25:35;;;;;;;7.35;4.75;;;1.30;95.40;;;;;;2074337;28;20117;-92
2021/12/03 03:26:39;;;;;;;8.38;4.95;;;1.30;95.30;;;;;;2079481;28;20059;-92
2021/12/03 03:27:40;;;;;;;8.18;5.10;;;1.30;95.30;;;;;;2089623;28;20033;-92
2021/12/03 03:28:43;;;;;;;8.07;4.97;;;1.30;95.30;;;;;;2082416;28;20064;-93
2021/12/03 03:29:45;;;;;;;9.07;4.95;;;1.30;95.30;;;;;;2074981;28;20025;-91
2021/12/03 03:30:47;;;;;;;8.50;5.40;;;1.30;95.30;;;;;;2081908;28;20116;-91
2021/12/03 03:31:48;;;;;;;7.30;5.00;;;1.30;95.30;;;;;;2082212;28;20041;-92
2021/12/03 03:32:50;;;;;;;7.57;5.38;;;1.30;95.30;;;;;;2071463;28;20029;-92
2021/12/03 03:33:50;;;;;;;7.07;5.03;;;1.30;95.30;;;;;;2081480;28;20063;-92
2021/12/03 03:34:51;;;;;;;6.80;5.00;;;1.40;95.30;;;;;;2075800;28;20034;-92
2021/12/03 03:35:51;;;;;;;7.90;5.13;;;1.40;95.30;;;;;;2074087;28;20030;-91
2021/12/03 03:36:52;;;;;;;8.45;5.30;;;1.30;95.30;;;;;;2078881;28;20399;-91
2021/12/03 03:37:53;;;;;;;8.27;5.35;;;1.40;95.30;;;;;;2089705;28;20029;-92
2021/12/03 03:38:54;;;;;;;7.97;5.25;;;1.40;95.30;;;;;;2090941;28;20017;-93
2021/12/03 03:39:55;;;;;;;7.43;4.97;;;1.40;95.30;;;;;;2091322;28;20383;-92
2021/12/03 03:40:56;;;;;;;8.35;4.97;;;1.40;95.30;;;;;;2092095;28;20128;-91
2021/12/03 03:41:57;;;;;;;8.05;5.25;;;1.40;95.30;;;;;;2085967;28;20017;-92
2021/12/03 03:42:59;;;;;;;7.63;5.43;;;1.40;95.30;;;;;;2074557;28;20030;-91
2021/12/03 03:44:00;;;;;;;8.00;5.47;;;1.40;95.30;;;;;;2067460;28;20031;-92
2021/12/03 03:45:04;;;;;;;6.70;4.95;;;1.40;95.60;;;;;;2082214;28;20055;-91
2021/12/03 03:46:05;;;;;;;9.07;5.38;;;1.40;95.30;;;;;;2082246;28;20025;-92
2021/12/03 03:47:07;;;;;;;9.23;5.57;;;1.40;95.30;;;;;;2075988;28;20030;-92
2021/12/03 03:48:08;;;;;;;7.97;5.22;;;1.40;95.30;;;;;;2079349;28;20025;-92
2021/12/03 03:49:09;;;;;;;9.35;5.97;;;1.40;95.30;;;;;;2082290;28;20041;-92
2021/12/03 03:50:13;;;;;;;8.40;5.50;;;1.50;95.30;;;;;;2073922;28;20472;-92
2021/12/03 03:51:15;;;;;;;7.43;5.15;;;1.50;95.30;;;;;;2074238;28;20466;-92
2021/12/03 03:52:15;;;;;;;7.28;5.05;;;1.50;95.30;;;;;;2075365;28;20598;-93
2021/12/03 03:53:16;;;;;;;7.53;5.30;;;1.50;95.30;;;;;;2081587;28;20037;-92
2021/12/03 03:54:18;;;;;;;7.95;5.45;;;1.50;95.30;;;;;;2082318;28;20507;-93
2021/12/03 03:55:19;;;;;;;8.25;5.78;;;1.50;95.20;;;;;;2082401;28;20431;-93
2021/12/03 03:56:20;;;;;;;8.32;6.10;;;1.50;95.20;;;;;;2055497;28;20041;-93
2021/12/03 03:57:21;;;;;;;8.48;5.80;;;1.50;95.20;;;;;;2072680;28;20034;-93
2021/12/03 03:58:23;;;;;;;9.50;5.95;;;1.50;95.20;;;;;;2069513;28;20054;-93
2021/12/03 03:59:23;;;;;;;9.57;5.82;;;1.50;95.20;;;;;;2070673;28;20560;-92
2021/12/03 04:00:29;;;;;;;8.55;5.72;;;1.60;95.30;;;;;;2088435;28;20119;-93
2021/12/03 04:01:30;;;;;;;9.88;6.38;;;1.60;95.30;;;;;;2089056;28;20037;-93
2021/12/03 04:02:31;;;;;;;12.10;6.32;;;1.60;95.20;;;;;;2090574;28;20079;-93
2021/12/03 04:03:32;;;;;;;10.85;6.78;;;1.60;95.20;;;;;;2073842;28;20029;-94
2021/12/03 04:04:33;;;;;;;10.18;6.65;;;1.60;95.20;;;;;;2074681;28;20030;-93
2021/12/03 04:05:34;;;;;;;8.65;6.38;;;1.60;95.20;;;;;;2074184;28;20026;-93
2021/12/03 04:06:34;;;;;;;8.98;6.68;;;1.60;95.20;;;;;;2065899;28;20058;-93
2021/12/03 04:07:37;;;;;;;11.00;6.50;;;1.60;95.20;;;;;;2063514;28;20166;-93
2021/12/03 04:08:38;;;;;;;9.43;6.57;;;1.60;95.20;;;;;;2082100;28;20021;-93
2021/12/03 04:09:38;;;;;;;8.70;6.03;;;1.60;95.20;;;;;;2081681;28;20111;-93
2021/12/03 04:10:39;;;;;;;10.35;6.78;;;1.60;95.20;;;;;;2072983;28;20088;-93
2021/12/03 04:11:41;;;;;;;10.38;7.30;;;1.70;95.30;;;;;;2083981;28;20447;-94
2021/12/03 04:12:42;;;;;;;9.70;6.72;;;1.60;95.20;;;;;;2090716;28;20071;-92
2021/12/03 04:13:43;;;;;;;10.95;7.22;;;1.70;95.20;;;;;;2090614;28;20074;-93
2021/12/03 04:14:44;;;;;;;11.05;7.35;;;1.70;95.20;;;;;;2085025;28;20029;-92
2021/12/03 04:15:44;;;;;;;9.82;7.07;;;1.70;95.50;;;;;;2069528;28;20060;-93
2021/12/03 04:16:45;;;;;;;10.35;7.68;;;1.70;95.20;;;;;;2079577;28;20026;-93
2021/12/03 04:17:47;;;;;;;11.18;7.47;;;1.70;95.20;;;;;;2095989;28;20032;-93
2021/12/03 04:18:48;;;;;;;10.85;7.35;;;1.70;95.20;;;;;;2095083;28;20021;-93
2021/12/03 04:19:49;;;;;;;10.93;7.43;;;1.70;95.20;;;;;;2081636;28;20103;-93
2021/12/03 04:20:49;;;;;;;12.73;7.55;;;1.70;95.50;;;;;;2057167;28;20520;-92
2021/12/03 04:21:50;;;;;;;9.70;7.20;;;1.80;95.20;;;;;;2072541;28;20540;-93
2021/12/03 04:22:52;;;;;;;11.10;7.63;;;1.70;95.20;;;;;;2089798;28;20033;-93
2021/12/03 04:23:53;;;;;;;11.13;7.72;;;1.70;95.20;;;;;;2090320;28;20040;-92
2021/12/03 04:24:55;;;;;;;11.32;8.43;;;1.80;95.20;;;;;;2086472;28;20030;-93
2021/12/03 04:25:56;;;;;;;13.27;8.60;;;1.80;95.30;;;;;;2082211;28;20030;-91
2021/12/03 04:26:57;;;;;;;12.07;8.32;;;1.80;95.20;;;;;;2072188;28;20030;-92
2021/12/03 04:27:57;;;;;;;11.73;8.52;;;1.80;95.30;;;;;;2065460;28;20027;-92
2021/12/03 04:28:59;;;;;;;13.85;9.35;;;1.80;95.20;;;;;;2081952;28;20061;-92
2021/12/03 04:30:00;;;;;;;13.65;9.15;;;1.80;95.20;;;;;;2090035;28;20510;-92
2021/12/03 04:31:01;;;;;;;12.77;8.80;;;1.80;95.20;;;;;;2091234;28;20442;-91
2021/12/03 04:32:02;;;;;;;14.65;9.15;;;1.80;95.20;;;;;;2090614;28;20040;-92
2021/12/03 04:33:03;;;;;;;13.68;8.95;;;1.80;95.20;;;;;;2066073;28;20027;-92
2021/12/03 04:34:04;;;;;;;15.93;10.52;;;1.80;95.20;;;;;;2074395;28;20156;-92
2021/12/03 04:35:05;;;;;;;13.68;10.25;;;1.80;95.20;;;;;;2090419;28;20037;-91
2021/12/03 04:36:06;;;;;;;14.98;10.13;;;1.80;95.20;;;;;;2090013;28;20035;-91
2021/12/03 04:37:07;;;;;;;15.32;10.48;;;1.90;95.20;;;;;;2082083;28;20028;-92
2021/12/03 04:38:08;;;;;;;15.13;10.48;;;1.80;95.20;;;;;;2072467;28;20025;-92
2021/12/03 04:39:09;;;;;;;14.23;10.25;;;1.90;95.20;;;;;;2078731;28;20522;-93
2021/12/03 04:40:12;;;;;;;16.75;11.18;;;1.80;95.20;;;;;;2073813;28;20061;-92
2021/12/03 04:41:13;;;;;;;18.17;11.88;;;1.80;95.20;;;;;;2072268;28;20076;-91
2021/12/03 04:42:14;;;;;;;15.52;11.35;;;1.80;95.20;;;;;;2073061;28;20121;-91
2021/12/03 04:43:15;;;;;;;18.00;11.98;;;1.80;95.20;;;;;;2073838;28;20048;-92
2021/12/03 04:44:15;;;;;;;18.33;11.88;;;1.90;95.20;;;;;;2081149;28;20048;-91
2021/12/03 04:45:19;;;;;;;18.40;12.45;;;1.90;95.30;;;;;;2076841;28;20049;-91
2021/12/03 04:46:22;;;;;;;18.65;12.15;;;1.90;95.30;;;;;;2086760;28;20108;-92
2021/12/03 04:47:22;;;;;;;18.95;12.80;;;1.90;95.30;;;;;;2081904;28;20052;-92
2021/12/03 04:48:23;;;;;;;17.83;12.05;;;1.90;95.30;;;;;;2071286;28;20061;-92
2021/12/03 04:49:24;;;;;;;17.98;12.48;;;1.90;95.30;;;;;;2073959;28;20090;-92
2021/12/03 04:50:28;;;;;;;18.40;12.75;;;1.90;95.30;;;;;;2081770;28;20037;-92
2021/12/03 04:51:29;;;;;;;19.15;12.60;;;1.90;95.30;;;;;;2086041;28;20057;-92
2021/12/03 04:52:30;;;;;;;22.42;13.85;;;1.90;95.20;;;;;;2082925;28;20033;-92
2021/12/03 04:53:31;;;;;;;19.52;12.65;;;1.90;95.20;;;;;;2091849;28;20086;-91
2021/12/03 04:54:31;;;;;;;20.63;13.23;;;1.90;95.20;;;;;;2078097;28;20050;-91
2021/12/03 04:55:33;;;;;;;23.75;14.25;;;1.90;95.30;;;;;;2075816;28;20011;-90
2021/12/03 04:56:34;;;;;;;23.75;13.10;;;1.90;95.30;;;;;;2084297;28;20010;-86
2021/12/03 04:57:35;;;;;;;21.98;13.75;;;1.90;95.30;;;;;;2084376;28;20077;-87
2021/12/03 04:58:37;;;;;;;21.70;14.20;;;1.90;95.30;;;;;;2090973;28;20013;-83
2021/12/03 04:59:38;;;;;;;22.60;14.43;;;1.90;95.30;;;;;;2099780;28;20029;-86
2021/12/03 05:00:42;;;;;;;22.65;14.15;;;1.90;95.50;;;;;;2098395;28;20017;-92
2021/12/03 05:01:43;;;;;;;25.08;14.95;;;1.90;95.30;;;;;;2079608;28;20098;-91
2021/12/03 05:02:45;;;;;;;26.45;15.98;;;1.90;95.30;;;;;;2088067;28;20035;-92
2021/12/03 05:03:45;;;;;;;25.83;15.23;;;1.90;95.30;;;;;;2090141;28;20032;-91
2021/12/03 05:04:48;;;;;;;28.20;16.02;;;1.90;95.30;;;;;;2090145;28;20479;-92
2021/12/03 05:05:56;;;;;;;26.05;15.52;;;1.90;95.30;;;;;;2081661;28;20028;-91
2021/12/03 05:08:26;;;;;;;28.35;15.18;;;1.90;95.30;;;;;;2071048;28;20048;-92
2021/12/03 05:09:26;;;;;;;28.73;16.30;;;1.90;95.30;;;;;;2085134;28;20025;-91
2021/12/03 05:10:33;;;;;;;30.05;16.45;;;1.90;95.30;;;;;;2076090;28;20081;-92
2021/12/03 05:11:33;;;;;;;30.15;16.80;;;1.90;95.30;;;;;;2074381;28;20032;-92
2021/12/03 05:12:35;;;;;;;28.48;16.65;;;1.90;95.30;;;;;;2082898;28;20044;-92
2021/12/03 05:13:36;;;;;;;32.30;17.60;;;1.90;95.30;;;;;;2089667;28;20021;-92
2021/12/03 05:14:37;;;;;;;30.40;17.52;;;1.90;95.30;;;;;;2085706;28;20166;-92
2021/12/03 05:15:40;;;;;;;28.00;16.10;;;1.90;95.30;;;;;;2073060;28;20029;-91
2021/12/03 05:16:43;;;;;;;29.67;16.38;;;1.90;95.30;;;;;;2074746;28;20029;-92
2021/12/03 05:17:44;;;;;;;28.45;16.88;;;1.90;95.30;;;;;;2080697;28;20030;-93
2021/12/03 05:18:48;;;;;;;28.90;16.38;;;1.90;95.30;;;;;;2073855;28;20101;-92
2021/12/03 05:19:49;;;;;;;31.20;17.38;;;1.90;95.30;;;;;;2078729;28;20042;-92
2021/12/03 05:20:52;;;;;;;32.53;17.85;;;1.90;95.30;;;;;;2080425;28;20033;-92
2021/12/03 05:21:52;;;;;;;36.50;17.95;;;1.90;95.30;;;;;;2088692;28;20049;-92
2021/12/03 05:22:53;;;;;;;35.38;18.70;;;1.90;95.30;;;;;;2087359;28;20089;-92
2021/12/03 05:23:54;;;;;;;37.78;18.67;;;1.90;95.30;;;;;;2087045;28;20025;-92